sensor_id;sensor_type;location;lat;lon;timestamp;P1;durP1;ratioP1;P2;durP2;ratioP2
43837;SDS011;65998;46.256;7.534;2023-04-24T00:01:49;103.75;;;42.60;;
43837;SDS011;65998;46.256;7.534;2023-04-24T00:04:15;104.10;;;43.13;;
43837;SDS011;65998;46.256;7.534;2023-04-24T00:06:41;99.68;;;40.95;;
43837;SDS011;65998;46.256;7.534;2023-04-24T00:09:07;100.65;;;41.15;;
43837;SDS011;65998;46.256;7.534;2023-04-24T00:11:33;97.23;;;40.53;;
43837;SDS011;65998;46.256;7.534;2023-04-24T00:13:59;99.72;;;42.15;;
43837;SDS011;65998;46.256;7.534;2023-04-24T00:16:25;103.43;;;41.90;;
43837;SDS011;65998;46.256;7.534;2023-04-24T00:18:51;95.37;;;40.67;;
43837;SDS011;65998;46.256;7.534;2023-04-24T00:21:16;98.32;;;40.78;;
43837;SDS011;65998;46.256;7.534;2023-04-24T00:23:43;95.50;;;40.50;;
43837;SDS011;65998;46.256;7.534;2023-04-24T00:26:09;97.80;;;39.92;;
43837;SDS011;65998;46.256;7.534;2023-04-24T00:28:35;101.40;;;40.55;;
43837;SDS011;65998;46.256;7.534;2023-04-24T00:31:01;96.68;;;39.47;;
43837;SDS011;65998;46.256;7.534;2023-04-24T00:33:27;94.17;;;38.13;;
43837;SDS011;65998;46.256;7.534;2023-04-24T00:35:53;90.15;;;38.33;;
43837;SDS011;65998;46.256;7.534;2023-04-24T00:38:19;98.03;;;39.78;;
43837;SDS011;65998;46.256;7.534;2023-04-24T00:40:44;91.10;;;38.80;;
43837;SDS011;65998;46.256;7.534;2023-04-24T00:43:11;96.72;;;39.42;;
43837;SDS011;65998;46.256;7.534;2023-04-24T00:45:37;92.00;;;39.30;;
43837;SDS011;65998;46.256;7.534;2023-04-24T00:48:02;87.85;;;37.28;;
43837;SDS011;65998;46.256;7.534;2023-04-24T00:50:30;93.87;;;38.90;;
43837;SDS011;65998;46.256;7.534;2023-04-24T00:52:56;89.75;;;36.85;;
43837;SDS011;65998;46.256;7.534;2023-04-24T00:55:22;87.75;;;36.65;;
43837;SDS011;65998;46.256;7.534;2023-04-24T00:57:49;87.57;;;35.90;;
43837;SDS011;65998;46.256;7.534;2023-04-24T01:00:15;85.30;;;35.33;;
43837;SDS011;65998;46.256;7.534;2023-04-24T01:02:41;88.30;;;35.70;;
43837;SDS011;65998;46.256;7.534;2023-04-24T01:05:09;88.18;;;35.65;;
43837;SDS011;65998;46.256;7.534;2023-04-24T01:07:35;85.22;;;35.58;;
43837;SDS011;65998;46.256;7.534;2023-04-24T01:10:02;80.03;;;34.47;;
43837;SDS011;65998;46.256;7.534;2023-04-24T01:12:28;79.55;;;33.58;;
43837;SDS011;65998;46.256;7.534;2023-04-24T01:14:55;82.27;;;33.27;;
43837;SDS011;65998;46.256;7.534;2023-04-24T01:17:21;81.95;;;33.78;;
43837;SDS011;65998;46.256;7.534;2023-04-24T01:19:47;83.03;;;34.20;;
43837;SDS011;65998;46.256;7.534;2023-04-24T01:22:13;81.07;;;33.57;;
43837;SDS011;65998;46.256;7.534;2023-04-24T01:24:40;80.07;;;33.40;;
43837;SDS011;65998;46.256;7.534;2023-04-24T01:27:07;79.45;;;32.75;;
43837;SDS011;65998;46.256;7.534;2023-04-24T01:29:35;77.43;;;31.92;;
43837;SDS011;65998;46.256;7.534;2023-04-24T01:32:01;80.03;;;32.35;;
43837;SDS011;65998;46.256;7.534;2023-04-24T01:34:28;77.97;;;33.40;;
43837;SDS011;65998;46.256;7.534;2023-04-24T01:36:54;77.50;;;30.63;;
43837;SDS011;65998;46.256;7.534;2023-04-24T01:39:21;71.90;;;31.67;;
43837;SDS011;65998;46.256;7.534;2023-04-24T01:41:46;78.35;;;31.30;;
43837;SDS011;65998;46.256;7.534;2023-04-24T01:44:12;76.95;;;31.88;;
43837;SDS011;65998;46.256;7.534;2023-04-24T01:46:39;68.65;;;29.15;;
43837;SDS011;65998;46.256;7.534;2023-04-24T01:49:05;73.68;;;31.65;;
43837;SDS011;65998;46.256;7.534;2023-04-24T01:51:31;74.03;;;28.95;;
43837;SDS011;65998;46.256;7.534;2023-04-24T01:53:57;70.60;;;29.40;;
43837;SDS011;65998;46.256;7.534;2023-04-24T01:56:23;73.95;;;29.75;;
43837;SDS011;65998;46.256;7.534;2023-04-24T01:58:50;71.55;;;29.77;;
43837;SDS011;65998;46.256;7.534;2023-04-24T02:01:18;66.20;;;28.20;;
43837;SDS011;65998;46.256;7.534;2023-04-24T02:03:44;73.43;;;30.10;;
43837;SDS011;65998;46.256;7.534;2023-04-24T02:06:10;67.05;;;29.08;;
43837;SDS011;65998;46.256;7.534;2023-04-24T02:08:37;66.20;;;27.37;;
43837;SDS011;65998;46.256;7.534;2023-04-24T02:11:02;70.63;;;28.35;;
43837;SDS011;65998;46.256;7.534;2023-04-24T02:13:28;64.18;;;26.35;;
43837;SDS011;65998;46.256;7.534;2023-04-24T02:15:54;67.37;;;28.80;;
43837;SDS011;65998;46.256;7.534;2023-04-24T02:18:20;67.05;;;27.83;;
43837;SDS011;65998;46.256;7.534;2023-04-24T02:20:46;68.83;;;27.60;;
43837;SDS011;65998;46.256;7.534;2023-04-24T02:23:12;66.13;;;27.00;;
43837;SDS011;65998;46.256;7.534;2023-04-24T02:25:37;64.80;;;26.53;;
43837;SDS011;65998;46.256;7.534;2023-04-24T02:28:03;62.00;;;26.02;;
43837;SDS011;65998;46.256;7.534;2023-04-24T02:30:29;62.10;;;25.67;;
43837;SDS011;65998;46.256;7.534;2023-04-24T02:32:55;62.30;;;25.70;;
43837;SDS011;65998;46.256;7.534;2023-04-24T02:35:20;58.35;;;24.75;;
43837;SDS011;65998;46.256;7.534;2023-04-24T02:37:46;66.20;;;25.83;;
43837;SDS011;65998;46.256;7.534;2023-04-24T02:40:12;59.85;;;24.33;;
43837;SDS011;65998;46.256;7.534;2023-04-24T02:42:38;58.53;;;24.17;;
43837;SDS011;65998;46.256;7.534;2023-04-24T02:45:04;60.73;;;24.77;;
43837;SDS011;65998;46.256;7.534;2023-04-24T02:47:30;61.10;;;25.60;;
43837;SDS011;65998;46.256;7.534;2023-04-24T02:49:56;56.90;;;24.10;;
43837;SDS011;65998;46.256;7.534;2023-04-24T02:52:22;57.50;;;23.35;;
43837;SDS011;65998;46.256;7.534;2023-04-24T02:54:47;51.07;;;21.77;;
43837;SDS011;65998;46.256;7.534;2023-04-24T02:57:13;57.70;;;23.65;;
43837;SDS011;65998;46.256;7.534;2023-04-24T02:59:39;55.33;;;22.42;;
43837;SDS011;65998;46.256;7.534;2023-04-24T03:02:05;57.13;;;22.67;;
43837;SDS011;65998;46.256;7.534;2023-04-24T03:04:30;52.92;;;22.48;;
43837;SDS011;65998;46.256;7.534;2023-04-24T03:06:56;53.00;;;22.00;;
43837;SDS011;65998;46.256;7.534;2023-04-24T03:09:22;54.80;;;22.65;;
43837;SDS011;65998;46.256;7.534;2023-04-24T03:11:48;53.15;;;21.35;;
43837;SDS011;65998;46.256;7.534;2023-04-24T03:14:14;51.40;;;21.13;;
43837;SDS011;65998;46.256;7.534;2023-04-24T03:16:40;56.08;;;21.65;;
43837;SDS011;65998;46.256;7.534;2023-04-24T03:19:05;52.77;;;21.90;;
43837;SDS011;65998;46.256;7.534;2023-04-24T03:21:32;52.67;;;21.50;;
43837;SDS011;65998;46.256;7.534;2023-04-24T03:23:58;51.30;;;20.52;;
43837;SDS011;65998;46.256;7.534;2023-04-24T03:26:24;48.72;;;19.73;;
43837;SDS011;65998;46.256;7.534;2023-04-24T03:28:49;48.97;;;19.92;;
43837;SDS011;65998;46.256;7.534;2023-04-24T03:31:15;49.63;;;20.55;;
43837;SDS011;65998;46.256;7.534;2023-04-24T03:33:41;42.90;;;18.90;;
43837;SDS011;65998;46.256;7.534;2023-04-24T03:36:07;47.88;;;19.73;;
43837;SDS011;65998;46.256;7.534;2023-04-24T03:38:33;43.63;;;18.10;;
43837;SDS011;65998;46.256;7.534;2023-04-24T03:40:59;45.93;;;18.43;;
43837;SDS011;65998;46.256;7.534;2023-04-24T03:43:24;46.35;;;19.55;;
43837;SDS011;65998;46.256;7.534;2023-04-24T03:45:50;44.93;;;17.90;;
43837;SDS011;65998;46.256;7.534;2023-04-24T03:48:16;46.20;;;18.77;;
43837;SDS011;65998;46.256;7.534;2023-04-24T03:50:42;44.40;;;18.25;;
43837;SDS011;65998;46.256;7.534;2023-04-24T03:53:07;43.47;;;18.35;;
43837;SDS011;65998;46.256;7.534;2023-04-24T03:55:33;42.17;;;17.00;;
43837;SDS011;65998;46.256;7.534;2023-04-24T03:57:59;42.17;;;17.93;;
43837;SDS011;65998;46.256;7.534;2023-04-24T04:00:25;44.75;;;17.27;;
43837;SDS011;65998;46.256;7.534;2023-04-24T04:02:51;40.73;;;16.90;;
43837;SDS011;65998;46.256;7.534;2023-04-24T04:05:17;41.30;;;17.10;;
43837;SDS011;65998;46.256;7.534;2023-04-24T04:07:42;39.50;;;15.95;;
43837;SDS011;65998;46.256;7.534;2023-04-24T04:10:08;40.90;;;16.65;;
43837;SDS011;65998;46.256;7.534;2023-04-24T04:12:34;38.92;;;16.02;;
43837;SDS011;65998;46.256;7.534;2023-04-24T04:15:00;37.03;;;15.60;;
43837;SDS011;65998;46.256;7.534;2023-04-24T04:17:26;38.80;;;15.57;;
43837;SDS011;65998;46.256;7.534;2023-04-24T04:19:52;35.83;;;15.77;;
43837;SDS011;65998;46.256;7.534;2023-04-24T04:22:17;37.53;;;15.00;;
43837;SDS011;65998;46.256;7.534;2023-04-24T04:24:43;36.22;;;15.23;;
43837;SDS011;65998;46.256;7.534;2023-04-24T04:27:09;37.57;;;15.67;;
43837;SDS011;65998;46.256;7.534;2023-04-24T04:29:35;37.20;;;15.20;;
43837;SDS011;65998;46.256;7.534;2023-04-24T04:32:01;38.13;;;14.98;;
43837;SDS011;65998;46.256;7.534;2023-04-24T04:34:27;37.78;;;14.95;;
43837;SDS011;65998;46.256;7.534;2023-04-24T04:36:53;32.17;;;13.30;;
43837;SDS011;65998;46.256;7.534;2023-04-24T04:39:19;35.03;;;14.77;;
43837;SDS011;65998;46.256;7.534;2023-04-24T04:41:44;33.28;;;13.88;;
43837;SDS011;65998;46.256;7.534;2023-04-24T04:44:10;33.35;;;13.43;;
43837;SDS011;65998;46.256;7.534;2023-04-24T04:46:36;34.20;;;13.48;;
43837;SDS011;65998;46.256;7.534;2023-04-24T04:49:02;33.50;;;13.82;;
43837;SDS011;65998;46.256;7.534;2023-04-24T04:51:28;38.17;;;14.37;;
43837;SDS011;65998;46.256;7.534;2023-04-24T04:53:54;32.40;;;13.05;;
43837;SDS011;65998;46.256;7.534;2023-04-24T04:56:20;30.87;;;11.77;;
43837;SDS011;65998;46.256;7.534;2023-04-24T04:58:46;33.47;;;12.77;;
43837;SDS011;65998;46.256;7.534;2023-04-24T05:01:11;26.20;;;11.55;;
43837;SDS011;65998;46.256;7.534;2023-04-24T05:03:37;32.37;;;12.33;;
43837;SDS011;65998;46.256;7.534;2023-04-24T05:06:03;32.17;;;12.70;;
43837;SDS011;65998;46.256;7.534;2023-04-24T05:08:30;27.65;;;11.57;;
43837;SDS011;65998;46.256;7.534;2023-04-24T05:10:56;28.52;;;11.23;;
43837;SDS011;65998;46.256;7.534;2023-04-24T05:13:22;26.88;;;11.90;;
43837;SDS011;65998;46.256;7.534;2023-04-24T05:15:47;28.60;;;11.73;;
43837;SDS011;65998;46.256;7.534;2023-04-24T05:18:13;29.60;;;11.20;;
43837;SDS011;65998;46.256;7.534;2023-04-24T05:20:39;28.17;;;10.87;;
43837;SDS011;65998;46.256;7.534;2023-04-24T05:23:05;29.83;;;11.63;;
43837;SDS011;65998;46.256;7.534;2023-04-24T05:25:30;26.13;;;11.17;;
43837;SDS011;65998;46.256;7.534;2023-04-24T05:27:56;28.13;;;11.50;;
43837;SDS011;65998;46.256;7.534;2023-04-24T05:30:22;25.48;;;10.90;;
43837;SDS011;65998;46.256;7.534;2023-04-24T05:32:48;24.17;;;10.32;;
43837;SDS011;65998;46.256;7.534;2023-04-24T05:35:14;24.48;;;10.32;;
43837;SDS011;65998;46.256;7.534;2023-04-24T05:37:40;27.13;;;11.15;;
43837;SDS011;65998;46.256;7.534;2023-04-24T05:40:05;22.40;;;10.10;;
43837;SDS011;65998;46.256;7.534;2023-04-24T05:42:32;23.42;;;9.88;;
43837;SDS011;65998;46.256;7.534;2023-04-24T05:44:58;23.93;;;9.70;;
43837;SDS011;65998;46.256;7.534;2023-04-24T05:47:24;24.88;;;9.38;;
43837;SDS011;65998;46.256;7.534;2023-04-24T05:49:49;21.90;;;9.30;;
43837;SDS011;65998;46.256;7.534;2023-04-24T05:52:15;22.85;;;9.07;;
43837;SDS011;65998;46.256;7.534;2023-04-24T05:54:41;22.43;;;9.60;;
43837;SDS011;65998;46.256;7.534;2023-04-24T05:57:07;20.88;;;9.25;;
43837;SDS011;65998;46.256;7.534;2023-04-24T05:59:33;22.70;;;9.32;;
43837;SDS011;65998;46.256;7.534;2023-04-24T06:02:00;21.77;;;8.30;;
43837;SDS011;65998;46.256;7.534;2023-04-24T06:04:26;20.13;;;8.48;;
43837;SDS011;65998;46.256;7.534;2023-04-24T06:06:52;22.23;;;8.43;;
43837;SDS011;65998;46.256;7.534;2023-04-24T06:09:18;16.13;;;7.40;;
43837;SDS011;65998;46.256;7.534;2023-04-24T06:11:44;22.60;;;9.15;;
43837;SDS011;65998;46.256;7.534;2023-04-24T06:14:09;21.87;;;8.70;;
43837;SDS011;65998;46.256;7.534;2023-04-24T06:16:35;18.60;;;7.47;;
43837;SDS011;65998;46.256;7.534;2023-04-24T06:19:01;19.10;;;7.53;;
43837;SDS011;65998;46.256;7.534;2023-04-24T06:21:27;19.38;;;7.10;;
43837;SDS011;65998;46.256;7.534;2023-04-24T06:23:53;19.80;;;8.00;;
43837;SDS011;65998;46.256;7.534;2023-04-24T06:26:19;19.27;;;7.80;;
43837;SDS011;65998;46.256;7.534;2023-04-24T06:28:45;17.15;;;7.50;;
43837;SDS011;65998;46.256;7.534;2023-04-24T06:31:11;18.23;;;7.07;;
43837;SDS011;65998;46.256;7.534;2023-04-24T06:33:36;20.00;;;8.48;;
43837;SDS011;65998;46.256;7.534;2023-04-24T06:36:02;20.77;;;7.90;;
43837;SDS011;65998;46.256;7.534;2023-04-24T06:38:28;14.52;;;6.07;;
43837;SDS011;65998;46.256;7.534;2023-04-24T06:40:54;17.90;;;7.30;;
43837;SDS011;65998;46.256;7.534;2023-04-24T06:43:20;16.20;;;7.10;;
43837;SDS011;65998;46.256;7.534;2023-04-24T06:45:46;16.17;;;6.60;;
43837;SDS011;65998;46.256;7.534;2023-04-24T06:48:11;18.30;;;7.43;;
43837;SDS011;65998;46.256;7.534;2023-04-24T06:50:38;16.23;;;6.32;;
43837;SDS011;65998;46.256;7.534;2023-04-24T06:53:03;16.42;;;6.50;;
43837;SDS011;65998;46.256;7.534;2023-04-24T06:55:29;17.67;;;6.63;;
43837;SDS011;65998;46.256;7.534;2023-04-24T06:57:55;17.40;;;6.65;;
43837;SDS011;65998;46.256;7.534;2023-04-24T07:00:21;15.88;;;6.32;;
43837;SDS011;65998;46.256;7.534;2023-04-24T07:02:46;15.87;;;6.33;;
43837;SDS011;65998;46.256;7.534;2023-04-24T07:05:12;16.98;;;5.78;;
43837;SDS011;65998;46.256;7.534;2023-04-24T07:07:38;14.67;;;6.17;;
43837;SDS011;65998;46.256;7.534;2023-04-24T07:10:04;15.98;;;5.78;;
43837;SDS011;65998;46.256;7.534;2023-04-24T07:12:31;13.95;;;5.72;;
43837;SDS011;65998;46.256;7.534;2023-04-24T07:14:57;13.20;;;5.53;;
43837;SDS011;65998;46.256;7.534;2023-04-24T07:17:22;13.57;;;5.80;;
43837;SDS011;65998;46.256;7.534;2023-04-24T07:19:48;15.70;;;5.47;;
43837;SDS011;65998;46.256;7.534;2023-04-24T07:22:14;12.65;;;5.50;;
43837;SDS011;65998;46.256;7.534;2023-04-24T07:24:40;13.55;;;5.28;;
43837;SDS011;65998;46.256;7.534;2023-04-24T07:27:06;14.20;;;5.25;;
43837;SDS011;65998;46.256;7.534;2023-04-24T07:29:31;14.83;;;5.77;;
43837;SDS011;65998;46.256;7.534;2023-04-24T07:31:57;15.60;;;5.57;;
43837;SDS011;65998;46.256;7.534;2023-04-24T07:34:23;14.60;;;5.37;;
43837;SDS011;65998;46.256;7.534;2023-04-24T07:36:49;13.15;;;4.85;;
43837;SDS011;65998;46.256;7.534;2023-04-24T07:39:15;10.98;;;5.18;;
43837;SDS011;65998;46.256;7.534;2023-04-24T07:41:40;11.87;;;4.57;;
43837;SDS011;65998;46.256;7.534;2023-04-24T07:44:06;11.05;;;4.82;;
43837;SDS011;65998;46.256;7.534;2023-04-24T07:46:32;12.27;;;5.23;;
43837;SDS011;65998;46.256;7.534;2023-04-24T07:48:58;12.05;;;4.47;;
43837;SDS011;65998;46.256;7.534;2023-04-24T07:51:24;11.73;;;5.00;;
43837;SDS011;65998;46.256;7.534;2023-04-24T07:53:50;10.52;;;4.43;;
43837;SDS011;65998;46.256;7.534;2023-04-24T07:56:16;11.10;;;4.30;;
43837;SDS011;65998;46.256;7.534;2023-04-24T07:58:42;11.93;;;4.97;;
43837;SDS011;65998;46.256;7.534;2023-04-24T08:01:07;11.25;;;4.65;;
43837;SDS011;65998;46.256;7.534;2023-04-24T08:03:33;11.30;;;4.47;;
43837;SDS011;65998;46.256;7.534;2023-04-24T08:05:59;12.98;;;4.93;;
43837;SDS011;65998;46.256;7.534;2023-04-24T08:08:25;11.52;;;4.30;;
43837;SDS011;65998;46.256;7.534;2023-04-24T08:10:51;11.67;;;4.50;;
43837;SDS011;65998;46.256;7.534;2023-04-24T08:13:17;10.52;;;4.07;;
43837;SDS011;65998;46.256;7.534;2023-04-24T08:15:42;10.05;;;4.30;;
43837;SDS011;65998;46.256;7.534;2023-04-24T08:18:08;10.10;;;3.75;;
43837;SDS011;65998;46.256;7.534;2023-04-24T08:20:35;11.02;;;3.85;;
43837;SDS011;65998;46.256;7.534;2023-04-24T08:23:01;10.82;;;4.43;;
43837;SDS011;65998;46.256;7.534;2023-04-24T08:25:27;9.52;;;3.50;;
43837;SDS011;65998;46.256;7.534;2023-04-24T08:27:53;12.13;;;4.25;;
43837;SDS011;65998;46.256;7.534;2023-04-24T08:30:18;8.67;;;3.70;;
43837;SDS011;65998;46.256;7.534;2023-04-24T08:32:44;11.27;;;3.92;;
43837;SDS011;65998;46.256;7.534;2023-04-24T08:35:10;9.37;;;3.83;;
43837;SDS011;65998;46.256;7.534;2023-04-24T08:37:36;8.15;;;3.40;;
43837;SDS011;65998;46.256;7.534;2023-04-24T08:40:03;10.20;;;4.05;;
43837;SDS011;65998;46.256;7.534;2023-04-24T08:42:36;9.53;;;3.60;;
43837;SDS011;65998;46.256;7.534;2023-04-24T08:45:02;6.80;;;3.22;;
43837;SDS011;65998;46.256;7.534;2023-04-24T08:47:28;8.48;;;3.40;;
43837;SDS011;65998;46.256;7.534;2023-04-24T08:49:55;8.13;;;3.53;;
43837;SDS011;65998;46.256;7.534;2023-04-24T08:52:22;9.73;;;3.92;;
43837;SDS011;65998;46.256;7.534;2023-04-24T08:54:48;9.03;;;3.57;;
43837;SDS011;65998;46.256;7.534;2023-04-24T08:57:15;10.32;;;3.40;;
43837;SDS011;65998;46.256;7.534;2023-04-24T08:59:41;8.10;;;3.13;;
43837;SDS011;65998;46.256;7.534;2023-04-24T09:02:09;7.55;;;2.95;;
43837;SDS011;65998;46.256;7.534;2023-04-24T09:04:36;8.88;;;3.42;;
43837;SDS011;65998;46.256;7.534;2023-04-24T09:07:03;7.25;;;3.03;;
43837;SDS011;65998;46.256;7.534;2023-04-24T09:09:31;9.55;;;3.28;;
43837;SDS011;65998;46.256;7.534;2023-04-24T09:11:58;6.97;;;2.70;;
43837;SDS011;65998;46.256;7.534;2023-04-24T09:14:25;8.38;;;2.80;;
43837;SDS011;65998;46.256;7.534;2023-04-24T09:16:51;7.65;;;2.72;;
43837;SDS011;65998;46.256;7.534;2023-04-24T09:19:17;9.63;;;3.50;;
43837;SDS011;65998;46.256;7.534;2023-04-24T09:21:45;8.70;;;2.75;;
43837;SDS011;65998;46.256;7.534;2023-04-24T09:24:15;9.00;;;3.03;;
43837;SDS011;65998;46.256;7.534;2023-04-24T09:26:43;7.55;;;2.60;;
43837;SDS011;65998;46.256;7.534;2023-04-24T09:29:16;7.43;;;2.80;;
43837;SDS011;65998;46.256;7.534;2023-04-24T09:31:44;6.45;;;2.55;;
43837;SDS011;65998;46.256;7.534;2023-04-24T09:34:11;6.50;;;2.67;;
43837;SDS011;65998;46.256;7.534;2023-04-24T09:36:38;7.75;;;2.90;;
43837;SDS011;65998;46.256;7.534;2023-04-24T09:39:08;6.72;;;2.50;;
43837;SDS011;65998;46.256;7.534;2023-04-24T09:41:35;6.68;;;2.55;;
43837;SDS011;65998;46.256;7.534;2023-04-24T09:44:11;7.60;;;2.70;;
43837;SDS011;65998;46.256;7.534;2023-04-24T09:46:42;7.50;;;2.67;;
43837;SDS011;65998;46.256;7.534;2023-04-24T09:49:09;6.25;;;2.33;;
43837;SDS011;65998;46.256;7.534;2023-04-24T09:51:38;6.38;;;2.50;;
43837;SDS011;65998;46.256;7.534;2023-04-24T09:54:04;5.80;;;2.20;;
43837;SDS011;65998;46.256;7.534;2023-04-24T09:56:36;6.97;;;2.47;;
43837;SDS011;65998;46.256;7.534;2023-04-24T09:59:07;6.25;;;2.17;;
43837;SDS011;65998;46.256;7.534;2023-04-24T10:01:33;7.15;;;2.47;;
43837;SDS011;65998;46.256;7.534;2023-04-24T10:04:00;6.95;;;2.38;;
43837;SDS011;65998;46.256;7.534;2023-04-24T10:06:31;7.20;;;2.40;;
43837;SDS011;65998;46.256;7.534;2023-04-24T10:09:00;6.50;;;2.10;;
43837;SDS011;65998;46.256;7.534;2023-04-24T10:11:26;6.20;;;2.40;;
43837;SDS011;65998;46.256;7.534;2023-04-24T10:13:53;5.20;;;2.13;;
43837;SDS011;65998;46.256;7.534;2023-04-24T10:16:19;6.03;;;1.85;;
43837;SDS011;65998;46.256;7.534;2023-04-24T10:18:48;7.03;;;2.28;;
43837;SDS011;65998;46.256;7.534;2023-04-24T10:21:14;6.53;;;2.00;;
43837;SDS011;65998;46.256;7.534;2023-04-24T10:23:41;5.22;;;2.08;;
43837;SDS011;65998;46.256;7.534;2023-04-24T10:26:09;6.13;;;2.10;;
43837;SDS011;65998;46.256;7.534;2023-04-24T10:28:36;5.50;;;2.00;;
43837;SDS011;65998;46.256;7.534;2023-04-24T10:31:02;4.97;;;2.17;;
43837;SDS011;65998;46.256;7.534;2023-04-24T10:33:29;5.97;;;1.95;;
43837;SDS011;65998;46.256;7.534;2023-04-24T10:35:56;7.45;;;1.85;;
43837;SDS011;65998;46.256;7.534;2023-04-24T10:38:24;4.97;;;1.83;;
43837;SDS011;65998;46.256;7.534;2023-04-24T10:40:57;5.00;;;1.80;;
43837;SDS011;65998;46.256;7.534;2023-04-24T10:43:32;5.53;;;1.90;;
43837;SDS011;65998;46.256;7.534;2023-04-24T10:46:02;5.72;;;1.70;;
43837;SDS011;65998;46.256;7.534;2023-04-24T10:48:31;4.95;;;1.80;;
43837;SDS011;65998;46.256;7.534;2023-04-24T10:50:58;5.60;;;1.92;;
43837;SDS011;65998;46.256;7.534;2023-04-24T10:53:24;4.80;;;1.90;;
43837;SDS011;65998;46.256;7.534;2023-04-24T10:58:24;3.70;;;1.50;;
43837;SDS011;65998;46.256;7.534;2023-04-24T11:01:00;4.20;;;1.50;;
43837;SDS011;65998;46.256;7.534;2023-04-24T11:03:27;4.77;;;1.57;;
43837;SDS011;65998;46.256;7.534;2023-04-24T11:10:56;4.65;;;1.73;;
43837;SDS011;65998;46.256;7.534;2023-04-24T11:13:27;6.55;;;1.85;;
43837;SDS011;65998;46.256;7.534;2023-04-24T11:16:25;4.57;;;1.70;;
43837;SDS011;65998;46.256;7.534;2023-04-24T11:18:57;3.78;;;1.48;;
43837;SDS011;65998;46.256;7.534;2023-04-24T11:21:32;4.25;;;1.70;;
43837;SDS011;65998;46.256;7.534;2023-04-24T11:26:51;4.72;;;1.70;;
43837;SDS011;65998;46.256;7.534;2023-04-24T11:29:19;4.43;;;1.60;;
43837;SDS011;65998;46.256;7.534;2023-04-24T11:31:46;3.95;;;1.30;;
43837;SDS011;65998;46.256;7.534;2023-04-24T11:34:12;4.03;;;1.57;;
43837;SDS011;65998;46.256;7.534;2023-04-24T11:36:42;5.00;;;1.45;;
43837;SDS011;65998;46.256;7.534;2023-04-24T11:39:08;4.18;;;1.48;;
43837;SDS011;65998;46.256;7.534;2023-04-24T11:41:34;4.18;;;1.35;;
43837;SDS011;65998;46.256;7.534;2023-04-24T11:44:00;3.67;;;1.33;;
43837;SDS011;65998;46.256;7.534;2023-04-24T11:46:28;4.55;;;1.52;;
43837;SDS011;65998;46.256;7.534;2023-04-24T11:48:55;3.67;;;1.27;;
43837;SDS011;65998;46.256;7.534;2023-04-24T11:51:22;4.13;;;1.30;;
43837;SDS011;65998;46.256;7.534;2023-04-24T11:53:49;4.03;;;1.40;;
43837;SDS011;65998;46.256;7.534;2023-04-24T11:56:18;4.78;;;1.50;;
43837;SDS011;65998;46.256;7.534;2023-04-24T11:58:44;3.85;;;1.38;;
43837;SDS011;65998;46.256;7.534;2023-04-24T12:01:10;4.10;;;1.20;;
43837;SDS011;65998;46.256;7.534;2023-04-24T12:03:35;4.10;;;1.27;;
43837;SDS011;65998;46.256;7.534;2023-04-24T12:06:05;3.90;;;1.17;;
43837;SDS011;65998;46.256;7.534;2023-04-24T12:08:34;4.45;;;1.35;;
43837;SDS011;65998;46.256;7.534;2023-04-24T12:11:01;4.25;;;1.30;;
43837;SDS011;65998;46.256;7.534;2023-04-24T12:13:28;3.67;;;1.30;;
43837;SDS011;65998;46.256;7.534;2023-04-24T12:15:54;3.50;;;1.10;;
43837;SDS011;65998;46.256;7.534;2023-04-24T12:18:23;3.58;;;1.10;;
43837;SDS011;65998;46.256;7.534;2023-04-24T12:20:49;3.60;;;1.30;;
43837;SDS011;65998;46.256;7.534;2023-04-24T12:23:15;3.55;;;1.23;;
43837;SDS011;65998;46.256;7.534;2023-04-24T12:25:41;3.53;;;1.40;;
43837;SDS011;65998;46.256;7.534;2023-04-24T12:28:11;3.53;;;1.20;;
43837;SDS011;65998;46.256;7.534;2023-04-24T12:33:08;3.55;;;1.33;;
43837;SDS011;65998;46.256;7.534;2023-04-24T12:35:34;3.60;;;1.20;;
43837;SDS011;65998;46.256;7.534;2023-04-24T12:38:10;3.10;;;1.00;;
43837;SDS011;65998;46.256;7.534;2023-04-24T12:40:38;3.28;;;1.20;;
43837;SDS011;65998;46.256;7.534;2023-04-24T12:45:43;3.37;;;1.07;;
43837;SDS011;65998;46.256;7.534;2023-04-24T12:48:10;3.58;;;1.08;;
43837;SDS011;65998;46.256;7.534;2023-04-24T12:50:36;3.70;;;1.10;;
43837;SDS011;65998;46.256;7.534;2023-04-24T12:53:03;2.65;;;0.90;;
43837;SDS011;65998;46.256;7.534;2023-04-24T12:55:28;3.15;;;1.15;;
43837;SDS011;65998;46.256;7.534;2023-04-24T12:57:54;2.55;;;0.70;;
43837;SDS011;65998;46.256;7.534;2023-04-24T13:00:20;3.45;;;1.00;;
43837;SDS011;65998;46.256;7.534;2023-04-24T13:02:46;2.67;;;0.80;;
43837;SDS011;65998;46.256;7.534;2023-04-24T13:05:12;3.58;;;1.10;;
43837;SDS011;65998;46.256;7.534;2023-04-24T13:07:38;3.37;;;1.10;;
43837;SDS011;65998;46.256;7.534;2023-04-24T13:10:04;3.22;;;0.88;;
43837;SDS011;65998;46.256;7.534;2023-04-24T13:12:30;2.78;;;0.80;;
43837;SDS011;65998;46.256;7.534;2023-04-24T13:14:56;2.97;;;0.88;;
43837;SDS011;65998;46.256;7.534;2023-04-24T13:17:22;3.43;;;0.90;;
43837;SDS011;65998;46.256;7.534;2023-04-24T13:19:49;3.35;;;1.00;;
43837;SDS011;65998;46.256;7.534;2023-04-24T13:22:15;3.10;;;0.77;;
43837;SDS011;65998;46.256;7.534;2023-04-24T13:24:41;2.65;;;0.80;;
43837;SDS011;65998;46.256;7.534;2023-04-24T13:27:07;2.60;;;0.80;;
43837;SDS011;65998;46.256;7.534;2023-04-24T13:29:34;2.40;;;0.82;;
43837;SDS011;65998;46.256;7.534;2023-04-24T13:31:59;3.73;;;0.90;;
43837;SDS011;65998;46.256;7.534;2023-04-24T13:34:25;3.00;;;0.80;;
43837;SDS011;65998;46.256;7.534;2023-04-24T13:36:52;2.53;;;0.77;;
43837;SDS011;65998;46.256;7.534;2023-04-24T13:39:20;2.30;;;0.85;;
43837;SDS011;65998;46.256;7.534;2023-04-24T13:41:46;2.25;;;0.70;;
43837;SDS011;65998;46.256;7.534;2023-04-24T13:44:12;2.90;;;0.90;;
43837;SDS011;65998;46.256;7.534;2023-04-24T13:46:38;3.20;;;0.90;;
43837;SDS011;65998;46.256;7.534;2023-04-24T13:49:04;2.97;;;0.80;;
43837;SDS011;65998;46.256;7.534;2023-04-24T13:51:30;2.80;;;0.80;;
43837;SDS011;65998;46.256;7.534;2023-04-24T13:53:56;2.88;;;0.70;;
43837;SDS011;65998;46.256;7.534;2023-04-24T13:56:22;2.60;;;0.80;;
43837;SDS011;65998;46.256;7.534;2023-04-24T13:58:48;2.63;;;0.88;;
43837;SDS011;65998;46.256;7.534;2023-04-24T14:01:14;2.58;;;0.73;;
43837;SDS011;65998;46.256;7.534;2023-04-24T14:03:40;2.75;;;0.90;;
43837;SDS011;65998;46.256;7.534;2023-04-24T14:06:07;2.60;;;0.70;;
43837;SDS011;65998;46.256;7.534;2023-04-24T14:08:33;2.92;;;0.80;;
43837;SDS011;65998;46.256;7.534;2023-04-24T14:10:58;3.50;;;0.70;;
43837;SDS011;65998;46.256;7.534;2023-04-24T14:13:24;2.67;;;0.80;;
43837;SDS011;65998;46.256;7.534;2023-04-24T14:15:51;2.22;;;0.50;;
43837;SDS011;65998;46.256;7.534;2023-04-24T14:18:17;2.22;;;0.68;;
43837;SDS011;65998;46.256;7.534;2023-04-24T14:20:43;2.70;;;0.70;;
43837;SDS011;65998;46.256;7.534;2023-04-24T14:23:08;2.45;;;0.70;;
43837;SDS011;65998;46.256;7.534;2023-04-24T14:25:34;2.30;;;0.60;;
43837;SDS011;65998;46.256;7.534;2023-04-24T14:28:00;2.83;;;0.88;;
43837;SDS011;65998;46.256;7.534;2023-04-24T14:30:26;2.90;;;0.80;;
43837;SDS011;65998;46.256;7.534;2023-04-24T14:32:52;2.58;;;0.75;;
43837;SDS011;65998;46.256;7.534;2023-04-24T14:35:17;2.80;;;0.67;;
43837;SDS011;65998;46.256;7.534;2023-04-24T14:37:43;2.90;;;0.60;;
43837;SDS011;65998;46.256;7.534;2023-04-24T14:40:09;3.17;;;1.10;;
43837;SDS011;65998;46.256;7.534;2023-04-24T14:42:35;2.33;;;0.70;;
43837;SDS011;65998;46.256;7.534;2023-04-24T14:45:01;2.20;;;0.68;;